sensor_id;sensor_type;location;lat;lon;timestamp;temperature;humidity
32476;DHT22;18929;48.008;10.882;2022-08-02T00:02:08;21.50;99.30
32476;DHT22;18929;48.008;10.882;2022-08-02T00:04:35;21.50;99.10
32476;DHT22;18929;48.008;10.882;2022-08-02T00:07:03;21.60;98.90
32476;DHT22;18929;48.008;10.882;2022-08-02T00:09:30;21.50;98.90
32476;DHT22;18929;48.008;10.882;2022-08-02T00:11:57;21.40;99.10
32476;DHT22;18929;48.008;10.882;2022-08-02T00:14:24;21.50;99.10
32476;DHT22;18929;48.008;10.882;2022-08-02T00:16:51;21.40;99.00
32476;DHT22;18929;48.008;10.882;2022-08-02T00:19:18;21.30;99.90
32476;DHT22;18929;48.008;10.882;2022-08-02T00:21:45;21.40;99.20
32476;DHT22;18929;48.008;10.882;2022-08-02T00:24:13;21.20;99.40
32476;DHT22;18929;48.008;10.882;2022-08-02T00:26:40;21.30;99.30
32476;DHT22;18929;48.008;10.882;2022-08-02T00:29:07;21.30;99.10
32476;DHT22;18929;48.008;10.882;2022-08-02T00:31:34;21.40;98.90
32476;DHT22;18929;48.008;10.882;2022-08-02T00:34:01;21.50;98.70
32476;DHT22;18929;48.008;10.882;2022-08-02T00:36:28;21.20;99.40
32476;DHT22;18929;48.008;10.882;2022-08-02T00:38:56;21.30;99.10
32476;DHT22;18929;48.008;10.882;2022-08-02T00:41:24;21.00;99.50
32476;DHT22;18929;48.008;10.882;2022-08-02T00:43:51;21.20;99.20
32476;DHT22;18929;48.008;10.882;2022-08-02T00:46:19;21.10;99.50
32476;DHT22;18929;48.008;10.882;2022-08-02T00:48:46;21.00;99.60
32476;DHT22;18929;48.008;10.882;2022-08-02T00:51:14;21.10;99.10
32476;DHT22;18929;48.008;10.882;2022-08-02T00:53:42;21.20;99.00
32476;DHT22;18929;48.008;10.882;2022-08-02T00:56:09;21.40;98.80
32476;DHT22;18929;48.008;10.882;2022-08-02T00:58:37;21.30;98.70
32476;DHT22;18929;48.008;10.882;2022-08-02T01:01:04;21.20;99.10
32476;DHT22;18929;48.008;10.882;2022-08-02T01:03:31;20.80;99.60
32476;DHT22;18929;48.008;10.882;2022-08-02T01:05:58;20.80;99.80
32476;DHT22;18929;48.008;10.882;2022-08-02T01:08:25;20.90;99.30
32476;DHT22;18929;48.008;10.882;2022-08-02T01:10:52;21.00;99.60
32476;DHT22;18929;48.008;10.882;2022-08-02T01:13:19;20.90;99.50
32476;DHT22;18929;48.008;10.882;2022-08-02T01:15:54;20.70;99.90
32476;DHT22;18929;48.008;10.882;2022-08-02T01:18:27;21.20;98.90
32476;DHT22;18929;48.008;10.882;2022-08-02T01:21:20;21.40;98.60
32476;DHT22;18929;48.008;10.882;2022-08-02T01:24:00;21.40;98.80
32476;DHT22;18929;48.008;10.882;2022-08-02T01:26:42;21.50;98.30
32476;DHT22;18929;48.008;10.882;2022-08-02T01:29:17;20.90;99.60
32476;DHT22;18929;48.008;10.882;2022-08-02T01:31:49;21.30;98.70
32476;DHT22;18929;48.008;10.882;2022-08-02T01:34:17;21.30;98.70
32476;DHT22;18929;48.008;10.882;2022-08-02T01:36:48;21.40;98.30
32476;DHT22;18929;48.008;10.882;2022-08-02T01:39:22;21.40;98.20
32476;DHT22;18929;48.008;10.882;2022-08-02T01:41:51;21.30;98.60
32476;DHT22;18929;48.008;10.882;2022-08-02T01:44:21;21.30;98.20
32476;DHT22;18929;48.008;10.882;2022-08-02T01:46:51;21.40;98.40
32476;DHT22;18929;48.008;10.882;2022-08-02T01:49:20;21.30;98.40
32476;DHT22;18929;48.008;10.882;2022-08-02T01:51:50;21.40;98.10
32476;DHT22;18929;48.008;10.882;2022-08-02T01:54:36;21.50;97.90
32476;DHT22;18929;48.008;10.882;2022-08-02T01:57:05;21.40;98.00
32476;DHT22;18929;48.008;10.882;2022-08-02T01:59:35;21.50;98.10
32476;DHT22;18929;48.008;10.882;2022-08-02T02:02:06;21.40;98.00
32476;DHT22;18929;48.008;10.882;2022-08-02T02:04:35;21.40;98.50
32476;DHT22;18929;48.008;10.882;2022-08-02T02:07:03;21.30;98.50
32476;DHT22;18929;48.008;10.882;2022-08-02T02:09:36;21.30;98.10
32476;DHT22;18929;48.008;10.882;2022-08-02T02:12:05;21.30;98.50
32476;DHT22;18929;48.008;10.882;2022-08-02T02:14:35;21.30;98.20
32476;DHT22;18929;48.008;10.882;2022-08-02T02:17:03;21.20;98.40
32476;DHT22;18929;48.008;10.882;2022-08-02T02:19:33;21.20;98.40
32476;DHT22;18929;48.008;10.882;2022-08-02T02:22:01;21.20;98.30
32476;DHT22;18929;48.008;10.882;2022-08-02T02:24:28;21.20;98.30
32476;DHT22;18929;48.008;10.882;2022-08-02T02:26:57;21.00;98.60
32476;DHT22;18929;48.008;10.882;2022-08-02T02:29:27;21.10;98.50
32476;DHT22;18929;48.008;10.882;2022-08-02T02:31:57;21.20;98.30
32476;DHT22;18929;48.008;10.882;2022-08-02T02:34:28;21.10;98.50
32476;DHT22;18929;48.008;10.882;2022-08-02T02:36:58;21.00;98.70
32476;DHT22;18929;48.008;10.882;2022-08-02T02:39:27;20.90;98.70
32476;DHT22;18929;48.008;10.882;2022-08-02T02:41:58;21.00;98.60
32476;DHT22;18929;48.008;10.882;2022-08-02T02:44:27;21.10;98.90
32476;DHT22;18929;48.008;10.882;2022-08-02T02:46:57;21.30;98.30
32476;DHT22;18929;48.008;10.882;2022-08-02T02:49:25;21.20;98.30
32476;DHT22;18929;48.008;10.882;2022-08-02T02:51:53;21.10;98.30
32476;DHT22;18929;48.008;10.882;2022-08-02T02:54:21;21.00;98.60
32476;DHT22;18929;48.008;10.882;2022-08-02T02:56:51;21.00;98.50
32476;DHT22;18929;48.008;10.882;2022-08-02T02:59:18;20.90;98.50
32476;DHT22;18929;48.008;10.882;2022-08-02T03:01:45;20.80;98.90
32476;DHT22;18929;48.008;10.882;2022-08-02T03:04:14;20.50;99.90
32476;DHT22;18929;48.008;10.882;2022-08-02T03:06:42;20.70;99.50
32476;DHT22;18929;48.008;10.882;2022-08-02T03:09:09;20.60;99.30
32476;DHT22;18929;48.008;10.882;2022-08-02T03:11:37;20.70;99.10
32476;DHT22;18929;48.008;10.882;2022-08-02T03:14:08;19.60;99.90
32476;DHT22;18929;48.008;10.882;2022-08-02T03:16:41;19.70;99.90
32476;DHT22;18929;48.008;10.882;2022-08-02T03:19:08;19.50;99.90
32476;DHT22;18929;48.008;10.882;2022-08-02T03:21:37;20.20;99.90
32476;DHT22;18929;48.008;10.882;2022-08-02T03:24:05;20.50;99.40
32476;DHT22;18929;48.008;10.882;2022-08-02T03:26:32;20.60;99.30
32476;DHT22;18929;48.008;10.882;2022-08-02T03:28:59;20.60;99.60
32476;DHT22;18929;48.008;10.882;2022-08-02T03:31:26;20.50;99.60
32476;DHT22;18929;48.008;10.882;2022-08-02T03:33:54;20.60;99.40
32476;DHT22;18929;48.008;10.882;2022-08-02T03:36:23;20.60;99.20
32476;DHT22;18929;48.008;10.882;2022-08-02T03:38:52;20.50;99.10
32476;DHT22;18929;48.008;10.882;2022-08-02T03:41:22;20.20;99.60
32476;DHT22;18929;48.008;10.882;2022-08-02T03:43:49;20.40;99.30
32476;DHT22;18929;48.008;10.882;2022-08-02T03:46:19;20.60;99.00
32476;DHT22;18929;48.008;10.882;2022-08-02T03:48:47;20.60;98.90
32476;DHT22;18929;48.008;10.882;2022-08-02T03:51:15;20.60;98.90
32476;DHT22;18929;48.008;10.882;2022-08-02T03:53:42;20.60;98.60
32476;DHT22;18929;48.008;10.882;2022-08-02T03:56:11;20.10;99.90
32476;DHT22;18929;48.008;10.882;2022-08-02T03:58:38;20.60;99.00
32476;DHT22;18929;48.008;10.882;2022-08-02T04:01:05;20.50;98.90
32476;DHT22;18929;48.008;10.882;2022-08-02T04:03:32;20.40;99.10
32476;DHT22;18929;48.008;10.882;2022-08-02T04:06:00;20.50;99.00
32476;DHT22;18929;48.008;10.882;2022-08-02T04:08:26;20.50;98.90
32476;DHT22;18929;48.008;10.882;2022-08-02T04:10:53;20.60;98.70
32476;DHT22;18929;48.008;10.882;2022-08-02T04:13:40;20.50;99.00
32476;DHT22;18929;48.008;10.882;2022-08-02T04:16:11;20.40;99.00
32476;DHT22;18929;48.008;10.882;2022-08-02T04:18:44;20.30;99.40
32476;DHT22;18929;48.008;10.882;2022-08-02T04:21:14;20.40;98.80
32476;DHT22;18929;48.008;10.882;2022-08-02T04:23:42;20.50;98.60
32476;DHT22;18929;48.008;10.882;2022-08-02T04:26:11;20.60;98.60
32476;DHT22;18929;48.008;10.882;2022-08-02T04:28:42;20.70;98.60
32476;DHT22;18929;48.008;10.882;2022-08-02T04:31:09;20.50;98.70
32476;DHT22;18929;48.008;10.882;2022-08-02T04:33:37;20.40;98.90
32476;DHT22;18929;48.008;10.882;2022-08-02T04:36:05;20.50;98.70
32476;DHT22;18929;48.008;10.882;2022-08-02T04:38:32;20.50;98.80
32476;DHT22;18929;48.008;10.882;2022-08-02T04:40:59;20.40;98.70
32476;DHT22;18929;48.008;10.882;2022-08-02T04:43:26;20.50;98.70
32476;DHT22;18929;48.008;10.882;2022-08-02T04:45:55;20.60;99.00
32476;DHT22;18929;48.008;10.882;2022-08-02T04:48:22;20.60;98.60
32476;DHT22;18929;48.008;10.882;2022-08-02T04:50:50;20.50;98.50
32476;DHT22;18929;48.008;10.882;2022-08-02T04:53:17;20.50;98.50
32476;DHT22;18929;48.008;10.882;2022-08-02T04:55:44;20.50;98.70
32476;DHT22;18929;48.008;10.882;2022-08-02T04:58:12;20.50;98.60
32476;DHT22;18929;48.008;10.882;2022-08-02T05:00:39;20.40;98.60
32476;DHT22;18929;48.008;10.882;2022-08-02T05:03:08;20.40;98.70
32476;DHT22;18929;48.008;10.882;2022-08-02T05:05:35;20.30;98.90
32476;DHT22;18929;48.008;10.882;2022-08-02T05:08:02;20.20;99.60
32476;DHT22;18929;48.008;10.882;2022-08-02T05:10:29;20.00;99.90
32476;DHT22;18929;48.008;10.882;2022-08-02T05:12:56;19.90;99.90
32476;DHT22;18929;48.008;10.882;2022-08-02T05:15:40;19.80;99.90
32476;DHT22;18929;48.008;10.882;2022-08-02T05:18:08;19.90;99.90
32476;DHT22;18929;48.008;10.882;2022-08-02T05:20:35;19.70;99.90
32476;DHT22;18929;48.008;10.882;2022-08-02T05:23:02;20.50;99.90
32476;DHT22;18929;48.008;10.882;2022-08-02T05:25:29;20.50;98.90
32476;DHT22;18929;48.008;10.882;2022-08-02T05:27:56;20.70;98.40
32476;DHT22;18929;48.008;10.882;2022-08-02T05:30:23;20.70;98.30
32476;DHT22;18929;48.008;10.882;2022-08-02T05:32:50;20.30;99.90
32476;DHT22;18929;48.008;10.882;2022-08-02T05:35:20;19.60;99.90
32476;DHT22;18929;48.008;10.882;2022-08-02T05:37:48;20.40;99.90
32476;DHT22;18929;48.008;10.882;2022-08-02T05:40:16;21.60;98.50
32476;DHT22;18929;48.008;10.882;2022-08-02T05:42:43;21.60;98.80
32476;DHT22;18929;48.008;10.882;2022-08-02T05:45:10;22.00;98.10
32476;DHT22;18929;48.008;10.882;2022-08-02T05:47:37;22.00;98.40
32476;DHT22;18929;48.008;10.882;2022-08-02T05:50:07;21.70;98.20
32476;DHT22;18929;48.008;10.882;2022-08-02T05:52:44;21.30;99.10
32476;DHT22;18929;48.008;10.882;2022-08-02T05:55:15;21.70;99.20
32476;DHT22;18929;48.008;10.882;2022-08-02T05:57:50;22.50;98.00
32476;DHT22;18929;48.008;10.882;2022-08-02T06:00:20;23.40;96.70
32476;DHT22;18929;48.008;10.882;2022-08-02T06:03:10;22.70;96.70
32476;DHT22;18929;48.008;10.882;2022-08-02T06:05:49;22.90;97.50
32476;DHT22;18929;48.008;10.882;2022-08-02T06:08:20;22.10;97.90
32476;DHT22;18929;48.008;10.882;2022-08-02T06:10:47;22.80;97.50
32476;DHT22;18929;48.008;10.882;2022-08-02T06:13:16;22.30;96.00
32476;DHT22;18929;48.008;10.882;2022-08-02T06:15:44;22.90;95.90
32476;DHT22;18929;48.008;10.882;2022-08-02T06:18:11;23.50;95.00
32476;DHT22;18929;48.008;10.882;2022-08-02T06:20:38;23.70;95.90
32476;DHT22;18929;48.008;10.882;2022-08-02T06:23:07;23.20;94.10
32476;DHT22;18929;48.008;10.882;2022-08-02T06:25:36;22.80;95.20
32476;DHT22;18929;48.008;10.882;2022-08-02T06:28:05;22.50;95.80
32476;DHT22;18929;48.008;10.882;2022-08-02T06:30:32;21.90;96.70
32476;DHT22;18929;48.008;10.882;2022-08-02T06:32:59;21.50;97.30
32476;DHT22;18929;48.008;10.882;2022-08-02T06:35:33;21.00;99.00
32476;DHT22;18929;48.008;10.882;2022-08-02T06:38:01;20.70;98.20
32476;DHT22;18929;48.008;10.882;2022-08-02T06:40:30;20.30;99.20
32476;DHT22;18929;48.008;10.882;2022-08-02T06:43:11;20.50;98.90
32476;DHT22;18929;48.008;10.882;2022-08-02T06:45:39;20.50;99.00
32476;DHT22;18929;48.008;10.882;2022-08-02T06:48:07;20.40;99.20
32476;DHT22;18929;48.008;10.882;2022-08-02T06:50:35;20.60;99.90
32476;DHT22;18929;48.008;10.882;2022-08-02T06:53:03;20.90;98.10
32476;DHT22;18929;48.008;10.882;2022-08-02T06:55:30;21.00;98.00
32476;DHT22;18929;48.008;10.882;2022-08-02T06:57:57;21.10;99.40
32476;DHT22;18929;48.008;10.882;2022-08-02T07:00:27;21.40;97.10
32476;DHT22;18929;48.008;10.882;2022-08-02T07:02:54;21.20;97.30
32476;DHT22;18929;48.008;10.882;2022-08-02T07:05:21;20.90;97.80
32476;DHT22;18929;48.008;10.882;2022-08-02T07:07:48;21.10;97.60
32476;DHT22;18929;48.008;10.882;2022-08-02T07:10:15;21.30;97.00
32476;DHT22;18929;48.008;10.882;2022-08-02T07:12:42;21.10;97.40
32476;DHT22;18929;48.008;10.882;2022-08-02T07:15:10;20.50;98.30
32476;DHT22;18929;48.008;10.882;2022-08-02T07:17:40;20.50;98.60
32476;DHT22;18929;48.008;10.882;2022-08-02T07:20:07;20.70;98.30
32476;DHT22;18929;48.008;10.882;2022-08-02T07:22:35;20.80;99.40
32476;DHT22;18929;48.008;10.882;2022-08-02T07:25:03;20.70;99.60
32476;DHT22;18929;48.008;10.882;2022-08-02T07:27:35;21.00;98.20
32476;DHT22;18929;48.008;10.882;2022-08-02T07:30:04;21.00;97.80
32476;DHT22;18929;48.008;10.882;2022-08-02T07:32:31;21.10;97.90
32476;DHT22;18929;48.008;10.882;2022-08-02T07:35:05;21.30;99.60
32476;DHT22;18929;48.008;10.882;2022-08-02T07:37:33;21.00;99.90
32476;DHT22;18929;48.008;10.882;2022-08-02T07:40:00;20.80;99.90
32476;DHT22;18929;48.008;10.882;2022-08-02T07:42:27;20.90;99.90
32476;DHT22;18929;48.008;10.882;2022-08-02T07:44:54;20.90;99.50
32476;DHT22;18929;48.008;10.882;2022-08-02T07:47:21;21.30;98.30
32476;DHT22;18929;48.008;10.882;2022-08-02T07:49:49;21.60;99.50
32476;DHT22;18929;48.008;10.882;2022-08-02T07:52:17;21.20;99.90
32476;DHT22;18929;48.008;10.882;2022-08-02T07:54:45;21.00;99.80
32476;DHT22;18929;48.008;10.882;2022-08-02T07:57:12;20.60;99.90
32476;DHT22;18929;48.008;10.882;2022-08-02T07:59:39;20.50;99.90
32476;DHT22;18929;48.008;10.882;2022-08-02T08:02:07;20.60;99.90
32476;DHT22;18929;48.008;10.882;2022-08-02T08:04:33;21.00;99.90
32476;DHT22;18929;48.008;10.882;2022-08-02T08:07:00;20.80;99.30
32476;DHT22;18929;48.008;10.882;2022-08-02T08:09:31;21.00;99.90
32476;DHT22;18929;48.008;10.882;2022-08-02T08:11:58;20.70;99.40
32476;DHT22;18929;48.008;10.882;2022-08-02T08:14:25;21.20;99.90
32476;DHT22;18929;48.008;10.882;2022-08-02T08:16:52;21.40;99.00
32476;DHT22;18929;48.008;10.882;2022-08-02T08:19:19;21.60;99.10
32476;DHT22;18929;48.008;10.882;2022-08-02T08:21:45;21.80;97.40
32476;DHT22;18929;48.008;10.882;2022-08-02T08:24:13;21.50;98.00
32476;DHT22;18929;48.008;10.882;2022-08-02T08:26:41;21.80;98.20
32476;DHT22;18929;48.008;10.882;2022-08-02T08:29:08;21.70;97.30
32476;DHT22;18929;48.008;10.882;2022-08-02T08:31:35;21.80;96.00
32476;DHT22;18929;48.008;10.882;2022-08-02T08:34:02;21.50;96.60
32476;DHT22;18929;48.008;10.882;2022-08-02T08:36:29;21.60;97.40
32476;DHT22;18929;48.008;10.882;2022-08-02T08:38:56;21.40;97.20
32476;DHT22;18929;48.008;10.882;2022-08-02T08:41:23;21.60;97.40
32476;DHT22;18929;48.008;10.882;2022-08-02T08:43:52;21.70;97.80
32476;DHT22;18929;48.008;10.882;2022-08-02T08:46:25;21.90;96.80
32476;DHT22;18929;48.008;10.882;2022-08-02T08:48:54;21.50;96.90
32476;DHT22;18929;48.008;10.882;2022-08-02T08:51:23;21.00;97.80
32476;DHT22;18929;48.008;10.882;2022-08-02T08:53:53;20.90;98.80
32476;DHT22;18929;48.008;10.882;2022-08-02T08:56:22;20.80;98.60
32476;DHT22;18929;48.008;10.882;2022-08-02T08:58:49;20.80;98.30
32476;DHT22;18929;48.008;10.882;2022-08-02T09:01:17;20.80;98.10
32476;DHT22;18929;48.008;10.882;2022-08-02T09:03:44;21.30;97.40
32476;DHT22;18929;48.008;10.882;2022-08-02T09:06:11;21.10;97.70
32476;DHT22;18929;48.008;10.882;2022-08-02T09:08:38;21.40;96.90
32476;DHT22;18929;48.008;10.882;2022-08-02T09:11:12;22.10;96.90
32476;DHT22;18929;48.008;10.882;2022-08-02T09:13:48;22.30;96.50
32476;DHT22;18929;48.008;10.882;2022-08-02T09:16:26;22.30;96.00
32476;DHT22;18929;48.008;10.882;2022-08-02T09:18:54;22.40;95.60
32476;DHT22;18929;48.008;10.882;2022-08-02T09:21:23;22.30;95.80
32476;DHT22;18929;48.008;10.882;2022-08-02T09:23:51;22.00;95.80
32476;DHT22;18929;48.008;10.882;2022-08-02T09:26:21;21.40;97.10
32476;DHT22;18929;48.008;10.882;2022-08-02T09:28:51;21.50;97.40
32476;DHT22;18929;48.008;10.882;2022-08-02T09:31:26;21.40;97.50
32476;DHT22;18929;48.008;10.882;2022-08-02T09:33:54;21.10;97.70
32476;DHT22;18929;48.008;10.882;2022-08-02T09:36:22;20.80;98.20
32476;DHT22;18929;48.008;10.882;2022-08-02T09:38:55;20.80;98.40
32476;DHT22;18929;48.008;10.882;2022-08-02T09:41:25;21.00;98.10
32476;DHT22;18929;48.008;10.882;2022-08-02T09:43:52;21.30;97.60
32476;DHT22;18929;48.008;10.882;2022-08-02T09:46:21;20.80;98.30
32476;DHT22;18929;48.008;10.882;2022-08-02T09:48:51;20.70;98.60
32476;DHT22;18929;48.008;10.882;2022-08-02T09:51:20;20.90;98.20
32476;DHT22;18929;48.008;10.882;2022-08-02T09:53:49;21.50;96.80
32476;DHT22;18929;48.008;10.882;2022-08-02T09:56:17;21.80;96.30
32476;DHT22;18929;48.008;10.882;2022-08-02T09:58:45;22.10;96.10
32476;DHT22;18929;48.008;10.882;2022-08-02T10:01:12;22.50;95.40
32476;DHT22;18929;48.008;10.882;2022-08-02T10:03:55;22.60;93.80
32476;DHT22;18929;48.008;10.882;2022-08-02T10:06:22;22.40;95.20
32476;DHT22;18929;48.008;10.882;2022-08-02T10:08:50;21.60;96.60
32476;DHT22;18929;48.008;10.882;2022-08-02T10:11:19;21.40;95.80
32476;DHT22;18929;48.008;10.882;2022-08-02T10:13:46;22.60;94.80
32476;DHT22;18929;48.008;10.882;2022-08-02T10:16:14;23.10;93.40
32476;DHT22;18929;48.008;10.882;2022-08-02T10:18:42;22.60;94.50
32476;DHT22;18929;48.008;10.882;2022-08-02T10:21:13;21.80;95.80
32476;DHT22;18929;48.008;10.882;2022-08-02T10:23:43;21.90;95.50
32476;DHT22;18929;48.008;10.882;2022-08-02T10:26:15;22.90;93.80
32476;DHT22;18929;48.008;10.882;2022-08-02T10:28:45;23.40;92.80
32476;DHT22;18929;48.008;10.882;2022-08-02T10:31:14;23.20;91.60
32476;DHT22;18929;48.008;10.882;2022-08-02T10:33:43;23.40;92.20
32476;DHT22;18929;48.008;10.882;2022-08-02T10:36:13;22.40;94.30
32476;DHT22;18929;48.008;10.882;2022-08-02T10:38:40;21.90;95.50
32476;DHT22;18929;48.008;10.882;2022-08-02T10:41:09;21.70;96.00
32476;DHT22;18929;48.008;10.882;2022-08-02T10:43:42;21.60;96.10
32476;DHT22;18929;48.008;10.882;2022-08-02T10:46:23;21.60;96.30
32476;DHT22;18929;48.008;10.882;2022-08-02T10:49:04;21.90;95.90
32476;DHT22;18929;48.008;10.882;2022-08-02T10:52:05;22.00;95.70
32476;DHT22;18929;48.008;10.882;2022-08-02T10:54:35;22.30;95.00
32476;DHT22;18929;48.008;10.882;2022-08-02T10:57:12;21.90;95.30
32476;DHT22;18929;48.008;10.882;2022-08-02T10:59:40;21.90;95.80
32476;DHT22;18929;48.008;10.882;2022-08-02T11:02:07;22.90;94.00
32476;DHT22;18929;48.008;10.882;2022-08-02T11:05:03;23.60;91.50
32476;DHT22;18929;48.008;10.882;2022-08-02T11:07:35;23.60;91.70
32476;DHT22;18929;48.008;10.882;2022-08-02T11:10:31;23.80;91.70
32476;DHT22;18929;48.008;10.882;2022-08-02T11:13:01;23.60;91.40
32476;DHT22;18929;48.008;10.882;2022-08-02T11:15:28;23.00;93.90
32476;DHT22;18929;48.008;10.882;2022-08-02T11:17:57;23.20;92.50
32476;DHT22;18929;48.008;10.882;2022-08-02T11:20:25;22.90;93.40
32476;DHT22;18929;48.008;10.882;2022-08-02T11:23:32;23.30;93.20
32476;DHT22;18929;48.008;10.882;2022-08-02T11:26:00;23.50;92.30
32476;DHT22;18929;48.008;10.882;2022-08-02T11:28:27;23.70;90.90
32476;DHT22;18929;48.008;10.882;2022-08-02T11:30:58;24.30;91.40
32476;DHT22;18929;48.008;10.882;2022-08-02T11:33:32;23.90;90.10
32476;DHT22;18929;48.008;10.882;2022-08-02T11:36:02;23.80;91.50
32476;DHT22;18929;48.008;10.882;2022-08-02T11:38:31;23.80;89.90
32476;DHT22;18929;48.008;10.882;2022-08-02T11:40:58;24.10;89.00
32476;DHT22;18929;48.008;10.882;2022-08-02T11:43:28;24.10;88.10
32476;DHT22;18929;48.008;10.882;2022-08-02T11:45:56;24.30;90.30
32476;DHT22;18929;48.008;10.882;2022-08-02T11:48:31;23.90;91.80
32476;DHT22;18929;48.008;10.882;2022-08-02T11:51:03;23.60;92.60
32476;DHT22;18929;48.008;10.882;2022-08-02T11:53:36;22.90;93.10
32476;DHT22;18929;48.008;10.882;2022-08-02T11:56:06;23.60;92.60
32476;DHT22;18929;48.008;10.882;2022-08-02T11:58:33;23.90;91.00
32476;DHT22;18929;48.008;10.882;2022-08-02T12:01:00;24.10;89.90
32476;DHT22;18929;48.008;10.882;2022-08-02T12:03:32;24.10;91.70
32476;DHT22;18929;48.008;10.882;2022-08-02T12:05:59;23.50;92.50
32476;DHT22;18929;48.008;10.882;2022-08-02T12:08:26;23.80;92.20
32476;DHT22;18929;48.008;10.882;2022-08-02T12:10:54;24.30;91.20
32476;DHT22;18929;48.008;10.882;2022-08-02T12:13:21;24.30;91.70
32476;DHT22;18929;48.008;10.882;2022-08-02T12:15:48;24.20;91.40
32476;DHT22;18929;48.008;10.882;2022-08-02T12:18:17;24.00;92.20
32476;DHT22;18929;48.008;10.882;2022-08-02T12:21:03;24.30;91.80
32476;DHT22;18929;48.008;10.882;2022-08-02T12:23:30;24.20;91.60
32476;DHT22;18929;48.008;10.882;2022-08-02T12:26:03;24.50;89.70
32476;DHT22;18929;48.008;10.882;2022-08-02T12:28:33;24.70;90.10
32476;DHT22;18929;48.008;10.882;2022-08-02T12:31:01;24.60;91.60
32476;DHT22;18929;48.008;10.882;2022-08-02T12:33:42;24.20;92.20
32476;DHT22;18929;48.008;10.882;2022-08-02T12:36:14;24.30;90.40
32476;DHT22;18929;48.008;10.882;2022-08-02T12:38:50;24.50;89.10
32476;DHT22;18929;48.008;10.882;2022-08-02T12:41:18;25.00;89.90
32476;DHT22;18929;48.008;10.882;2022-08-02T12:43:45;25.40;86.50
32476;DHT22;18929;48.008;10.882;2022-08-02T12:46:15;25.60;88.60
32476;DHT22;18929;48.008;10.882;2022-08-02T12:48:43;25.50;89.70
32476;DHT22;18929;48.008;10.882;2022-08-02T12:51:22;25.40;90.30
32476;DHT22;18929;48.008;10.882;2022-08-02T12:53:51;25.80;88.40
32476;DHT22;18929;48.008;10.882;2022-08-02T12:56:28;25.90;89.10
32476;DHT22;18929;48.008;10.882;2022-08-02T12:58:56;25.30;86.10
32476;DHT22;18929;48.008;10.882;2022-08-02T13:01:25;25.60;87.70
32476;DHT22;18929;48.008;10.882;2022-08-02T13:03:53;25.90;86.80
32476;DHT22;18929;48.008;10.882;2022-08-02T13:06:21;26.00;83.50
32476;DHT22;18929;48.008;10.882;2022-08-02T13:08:48;26.10;86.30
32476;DHT22;18929;48.008;10.882;2022-08-02T13:11:16;25.90;88.40
32476;DHT22;18929;48.008;10.882;2022-08-02T13:13:44;25.90;88.90
32476;DHT22;18929;48.008;10.882;2022-08-02T13:16:11;25.80;89.00
32476;DHT22;18929;48.008;10.882;2022-08-02T13:18:38;25.60;82.50
32476;DHT22;18929;48.008;10.882;2022-08-02T13:21:06;26.00;83.20
32476;DHT22;18929;48.008;10.882;2022-08-02T13:23:35;26.20;80.70
32476;DHT22;18929;48.008;10.882;2022-08-02T13:26:04;26.10;84.30
32476;DHT22;18929;48.008;10.882;2022-08-02T13:28:31;26.10;86.90
32476;DHT22;18929;48.008;10.882;2022-08-02T13:31:01;25.80;86.60
32476;DHT22;18929;48.008;10.882;2022-08-02T13:33:28;26.00;83.90
32476;DHT22;18929;48.008;10.882;2022-08-02T13:35:55;25.90;80.80
32476;DHT22;18929;48.008;10.882;2022-08-02T13:38:22;26.30;87.10
32476;DHT22;18929;48.008;10.882;2022-08-02T13:40:49;26.50;83.70
32476;DHT22;18929;48.008;10.882;2022-08-02T13:43:34;26.80;86.50
32476;DHT22;18929;48.008;10.882;2022-08-02T13:46:04;26.70;84.30
32476;DHT22;18929;48.008;10.882;2022-08-02T13:48:32;26.60;81.70
32476;DHT22;18929;48.008;10.882;2022-08-02T13:50:59;27.00;86.10
32476;DHT22;18929;48.008;10.882;2022-08-02T13:53:26;26.90;85.10
32476;DHT22;18929;48.008;10.882;2022-08-02T13:55:53;26.90;81.40
32476;DHT22;18929;48.008;10.882;2022-08-02T13:58:22;27.30;81.60
32476;DHT22;18929;48.008;10.882;2022-08-02T14:00:49;26.90;84.70
32476;DHT22;18929;48.008;10.882;2022-08-02T14:03:17;26.20;78.00
32476;DHT22;18929;48.008;10.882;2022-08-02T14:05:44;26.30;78.20
32476;DHT22;18929;48.008;10.882;2022-08-02T14:08:11;26.40;86.00
32476;DHT22;18929;48.008;10.882;2022-08-02T14:10:39;26.40;79.60
32476;DHT22;18929;48.008;10.882;2022-08-02T14:13:06;26.60;83.20
32476;DHT22;18929;48.008;10.882;2022-08-02T14:15:33;27.00;77.10
32476;DHT22;18929;48.008;10.882;2022-08-02T14:18:00;26.90;84.80
32476;DHT22;18929;48.008;10.882;2022-08-02T14:20:29;26.90;76.30
32476;DHT22;18929;48.008;10.882;2022-08-02T14:22:56;26.80;75.80
32476;DHT22;18929;48.008;10.882;2022-08-02T14:25:23;26.80;76.20
32476;DHT22;18929;48.008;10.882;2022-08-02T14:27:50;27.10;79.40
32476;DHT22;18929;48.008;10.882;2022-08-02T14:30:18;27.60;82.10
32476;DHT22;18929;48.008;10.882;2022-08-02T14:32:46;27.80;80.70
32476;DHT22;18929;48.008;10.882;2022-08-02T14:35:13;27.90;76.20
32476;DHT22;18929;48.008;10.882;2022-08-02T14:37:41;27.50;81.20
32476;DHT22;18929;48.008;10.882;2022-08-02T14:40:09;27.80;80.60
32476;DHT22;18929;48.008;10.882;2022-08-02T14:42:36;27.90;80.10
32476;DHT22;18929;48.008;10.882;2022-08-02T14:45:03;28.00;80.70
32476;DHT22;18929;48.008;10.882;2022-08-02T14:47:31;28.00;80.10
32476;DHT22;18929;48.008;10.882;2022-08-02T14:49:58;28.00;79.60
32476;DHT22;18929;48.008;10.882;2022-08-02T14:52:25;27.80;79.80
32476;DHT22;18929;48.008;10.882;2022-08-02T14:54:53;27.80;79.90
32476;DHT22;18929;48.008;10.882;2022-08-02T14:57:20;28.00;75.10
32476;DHT22;18929;48.008;10.882;2022-08-02T14:59:47;27.90;75.50
32476;DHT22;18929;48.008;10.882;2022-08-02T15:02:14;27.90;77.80
32476;DHT22;18929;48.008;10.882;2022-08-02T15:04:41;27.40;71.20
32476;DHT22;18929;48.008;10.882;2022-08-02T15:07:08;27.50;74.50
32476;DHT22;18929;48.008;10.882;2022-08-02T15:09:35;27.60;71.90
32476;DHT22;18929;48.008;10.882;2022-08-02T15:12:04;27.90;79.20
32476;DHT22;18929;48.008;10.882;2022-08-02T15:14:31;28.30;71.00
32476;DHT22;18929;48.008;10.882;2022-08-02T15:16:58;27.50;70.70
32476;DHT22;18929;48.008;10.882;2022-08-02T15:19:25;27.80;74.10
32476;DHT22;18929;48.008;10.882;2022-08-02T15:21:52;28.10;70.50
32476;DHT22;18929;48.008;10.882;2022-08-02T15:24:19;27.30;72.10
32476;DHT22;18929;48.008;10.882;2022-08-02T15:26:46;27.60;80.10
32476;DHT22;18929;48.008;10.882;2022-08-02T15:29:16;27.90;78.80